Aérodrome :
LOGIN :

S'inscrire | Disclaimer

   EN    FR    IT 

 










Légende :    VFR   VFR Marginal   IFR   IFR Intensif   IFR Très Intensif
Visi : 
Plafond : 
>= 8 km
>= 3000ft
5 à 8 km
1000 à 3000 ft
1500m à 5 km
500 à 1000 ft
800 à 1500m
200 à 500 ft
< 800m
< 200 ft
Symboles :   Orages  Brouillard  Fortes neiges  Fortes précipitations  Vent > 20 kt
SIGMETs :   Divers  Orages  Givrage  Turbulence  Onde Orograph.  Cendres Volcan.







- Altitude de l'aérodrome : 65 ft
- Code IATA : PMO


LICJ - Palermo Punta Raisi

DERNIER METAR :
  • 231750Z 05008KT 9999 SCT018 14/12 Q1022

METARs EXPIRÉS :
  • 231720Z 06010KT 9999 SCT015 14/12 Q1021
  • 231650Z 06010KT 9999 SCT015 14/12 Q1020
  • 231620Z 05011KT 9999 FEW015 14/12 Q1020
  • 231550Z 05013KT 9999 SCT012 14/12 Q1019
  • 231520Z 03014KT 9999 BKN012 15/13 Q1019

TAF TAF LICJ
Valide du 23 à 18h jusqu'au 24 à 18h UTC


231700Z 2318/2418 04014KT 9999 SCT015
BECMG 2416/2418 19010KT
Pas de NOTAMs connus pour ce terrain.
1 SIGMET publié pour la FIR Roma (LIRR) :
 
Turbulence forte
LIRR SIGMET 5 VALID 231600/232000 LIIB
LIRR ROMA FIR SEV TURB FCST E OF LINE N4336 E01207 - N3725 E01119 FL220/390 MOV E NC=



MET'MAP, la Météo Aéronautique d'un coup d'oeil ! - Copyright ORBIFLY Décembre 2007 - Disclaimer

ORBIFLY MET'MAP TEAM :

Programmation & Développement : Alexandra Zaïnal
Conception & Développement : Baudouin d'Aumeries
Co-Programmation & Développement : Marc-Olivier Méhu
Soutien technique & logistique : Manuel Goepfert

Contact : metmap@orbifly.com




SOURCES & CREDITS :

   NOAA